sensor_id;sensor_type;location;lat;lon;timestamp;temperature;humidity
25468;DHT22;13384;24.794;110.498;2022-10-31T00:01:09;21.80;91.30
25468;DHT22;13384;24.794;110.498;2022-10-31T00:03:53;21.80;90.10
25468;DHT22;13384;24.794;110.498;2022-10-31T00:06:24;21.80;91.40
25468;DHT22;13384;24.794;110.498;2022-10-31T00:08:58;21.70;90.70
25468;DHT22;13384;24.794;110.498;2022-10-31T00:11:29;21.70;89.60
25468;DHT22;13384;24.794;110.498;2022-10-31T00:14:01;21.60;90.50
25468;DHT22;13384;24.794;110.498;2022-10-31T00:16:32;21.50;90.90
25468;DHT22;13384;24.794;110.498;2022-10-31T00:19:05;21.50;91.10
25468;DHT22;13384;24.794;110.498;2022-10-31T00:21:36;21.50;89.00
25468;DHT22;13384;24.794;110.498;2022-10-31T00:24:07;21.50;91.10
25468;DHT22;13384;24.794;110.498;2022-10-31T00:26:58;21.70;91.30
25468;DHT22;13384;24.794;110.498;2022-10-31T00:29:29;21.70;90.20
25468;DHT22;13384;24.794;110.498;2022-10-31T00:32:01;21.60;90.40
25468;DHT22;13384;24.794;110.498;2022-10-31T00:34:32;21.70;91.40
25468;DHT22;13384;24.794;110.498;2022-10-31T00:37:03;21.80;90.50
25468;DHT22;13384;24.794;110.498;2022-10-31T00:39:56;21.80;89.30
25468;DHT22;13384;24.794;110.498;2022-10-31T00:42:27;21.60;88.70
25468;DHT22;13384;24.794;110.498;2022-10-31T00:44:59;21.40;89.10
25468;DHT22;13384;24.794;110.498;2022-10-31T00:47:30;21.40;91.10
25468;DHT22;13384;24.794;110.498;2022-10-31T00:50:14;21.50;88.10
25468;DHT22;13384;24.794;110.498;2022-10-31T00:52:45;21.40;89.50
25468;DHT22;13384;24.794;110.498;2022-10-31T00:55:17;21.60;90.60
25468;DHT22;13384;24.794;110.498;2022-10-31T00:57:48;21.50;88.50
25468;DHT22;13384;24.794;110.498;2022-10-31T01:00:20;21.50;89.50
25468;DHT22;13384;24.794;110.498;2022-10-31T01:02:51;21.40;87.70
25468;DHT22;13384;24.794;110.498;2022-10-31T01:05:22;21.50;90.60
25468;DHT22;13384;24.794;110.498;2022-10-31T01:07:53;21.60;90.90
25468;DHT22;13384;24.794;110.498;2022-10-31T01:10:27;21.70;89.60
25468;DHT22;13384;24.794;110.498;2022-10-31T01:13:20;21.80;90.20
25468;DHT22;13384;24.794;110.498;2022-10-31T01:15:56;21.80;89.90
25468;DHT22;13384;24.794;110.498;2022-10-31T01:18:40;21.90;89.70
25468;DHT22;13384;24.794;110.498;2022-10-31T01:21:18;21.90;90.10
25468;DHT22;13384;24.794;110.498;2022-10-31T01:23:51;22.00;90.50
25468;DHT22;13384;24.794;110.498;2022-10-31T01:26:28;22.00;90.10
25468;DHT22;13384;24.794;110.498;2022-10-31T01:29:05;22.00;90.20
25468;DHT22;13384;24.794;110.498;2022-10-31T01:31:39;22.00;89.50
25468;DHT22;13384;24.794;110.498;2022-10-31T01:34:18;22.00;88.20
25468;DHT22;13384;24.794;110.498;2022-10-31T01:36:50;22.00;89.30
25468;DHT22;13384;24.794;110.498;2022-10-31T01:39:23;22.00;88.30
25468;DHT22;13384;24.794;110.498;2022-10-31T01:41:55;22.10;90.30
25468;DHT22;13384;24.794;110.498;2022-10-31T01:44:55;22.10;90.30
25468;DHT22;13384;24.794;110.498;2022-10-31T01:47:47;22.10;90.20
25468;DHT22;13384;24.794;110.498;2022-10-31T01:50:35;22.10;90.00
25468;DHT22;13384;24.794;110.498;2022-10-31T01:53:08;22.20;90.10
25468;DHT22;13384;24.794;110.498;2022-10-31T01:55:41;22.10;88.50
25468;DHT22;13384;24.794;110.498;2022-10-31T01:58:21;22.20;90.20
25468;DHT22;13384;24.794;110.498;2022-10-31T02:00:57;22.10;90.30
25468;DHT22;13384;24.794;110.498;2022-10-31T02:03:36;22.10;89.00
25468;DHT22;13384;24.794;110.498;2022-10-31T02:06:13;22.10;87.70
25468;DHT22;13384;24.794;110.498;2022-10-31T02:08:47;22.10;87.70
25468;DHT22;13384;24.794;110.498;2022-10-31T02:11:18;22.20;90.20
25468;DHT22;13384;24.794;110.498;2022-10-31T02:13:49;22.20;89.00
25468;DHT22;13384;24.794;110.498;2022-10-31T02:16:22;22.20;89.60
25468;DHT22;13384;24.794;110.498;2022-10-31T02:19:21;22.20;90.20
25468;DHT22;13384;24.794;110.498;2022-10-31T02:22:23;22.20;90.00
25468;DHT22;13384;24.794;110.498;2022-10-31T02:34:47;22.20;88.20
25468;DHT22;13384;24.794;110.498;2022-10-31T02:36:53;22.20;86.70
25468;DHT22;13384;24.794;110.498;2022-10-31T02:42:38;22.30;86.20
25468;DHT22;13384;24.794;110.498;2022-10-31T02:48:28;22.30;86.20
25468;DHT22;13384;24.794;110.498;2022-10-31T02:51:02;22.30;89.20
25468;DHT22;13384;24.794;110.498;2022-10-31T02:53:35;22.30;87.80
25468;DHT22;13384;24.794;110.498;2022-10-31T02:56:16;22.40;88.90
25468;DHT22;13384;24.794;110.498;2022-10-31T02:58:58;22.40;89.50
25468;DHT22;13384;24.794;110.498;2022-10-31T03:04:37;22.40;89.20
25468;DHT22;13384;24.794;110.498;2022-10-31T03:07:41;22.40;87.30
25468;DHT22;13384;24.794;110.498;2022-10-31T03:13:03;22.40;87.70
25468;DHT22;13384;24.794;110.498;2022-10-31T03:15:44;22.40;87.30
25468;DHT22;13384;24.794;110.498;2022-10-31T03:18:49;22.40;86.00
25468;DHT22;13384;24.794;110.498;2022-10-31T03:24:14;22.40;88.70
25468;DHT22;13384;24.794;110.498;2022-10-31T03:26:52;22.40;89.30
25468;DHT22;13384;24.794;110.498;2022-10-31T03:29:28;22.40;89.30
25468;DHT22;13384;24.794;110.498;2022-10-31T03:32:09;22.40;86.80
25468;DHT22;13384;24.794;110.498;2022-10-31T03:34:45;22.40;88.10
25468;DHT22;13384;24.794;110.498;2022-10-31T03:37:19;22.40;89.00
25468;DHT22;13384;24.794;110.498;2022-10-31T03:39:51;22.40;88.40
25468;DHT22;13384;24.794;110.498;2022-10-31T03:42:27;22.40;88.00
25468;DHT22;13384;24.794;110.498;2022-10-31T03:45:06;22.40;88.30
25468;DHT22;13384;24.794;110.498;2022-10-31T03:47:42;22.40;88.60
25468;DHT22;13384;24.794;110.498;2022-10-31T03:50:14;22.40;89.20
25468;DHT22;13384;24.794;110.498;2022-10-31T03:52:57;22.40;89.10
25468;DHT22;13384;24.794;110.498;2022-10-31T03:55:39;22.40;89.00
25468;DHT22;13384;24.794;110.498;2022-10-31T03:58:32;22.40;89.30
25468;DHT22;13384;24.794;110.498;2022-10-31T04:01:11;22.40;89.60
25468;DHT22;13384;24.794;110.498;2022-10-31T04:03:47;22.40;89.70
25468;DHT22;13384;24.794;110.498;2022-10-31T04:06:57;22.40;90.00
25468;DHT22;13384;24.794;110.498;2022-10-31T04:09:31;22.40;89.20
25468;DHT22;13384;24.794;110.498;2022-10-31T04:12:23;22.40;90.00
25468;DHT22;13384;24.794;110.498;2022-10-31T04:15:10;22.50;90.10
25468;DHT22;13384;24.794;110.498;2022-10-31T04:18:02;22.50;90.10
25468;DHT22;13384;24.794;110.498;2022-10-31T04:20:36;22.50;89.70
25468;DHT22;13384;24.794;110.498;2022-10-31T04:23:20;22.50;90.00
25468;DHT22;13384;24.794;110.498;2022-10-31T04:25:54;22.50;89.50
25468;DHT22;13384;24.794;110.498;2022-10-31T04:28:24;22.50;89.60
25468;DHT22;13384;24.794;110.498;2022-10-31T04:30:55;22.50;89.60
25468;DHT22;13384;24.794;110.498;2022-10-31T04:33:26;22.50;90.00
25468;DHT22;13384;24.794;110.498;2022-10-31T04:36:00;22.50;90.00
25468;DHT22;13384;24.794;110.498;2022-10-31T04:38:50;22.50;90.10
25468;DHT22;13384;24.794;110.498;2022-10-31T04:41:39;22.50;88.90
25468;DHT22;13384;24.794;110.498;2022-10-31T04:44:16;22.50;89.90
25468;DHT22;13384;24.794;110.498;2022-10-31T04:46:51;22.50;88.40
25468;DHT22;13384;24.794;110.498;2022-10-31T04:49:23;22.50;89.50
25468;DHT22;13384;24.794;110.498;2022-10-31T04:51:54;22.50;89.90
25468;DHT22;13384;24.794;110.498;2022-10-31T04:54:25;22.50;89.40
25468;DHT22;13384;24.794;110.498;2022-10-31T04:57:14;22.50;88.60
25468;DHT22;13384;24.794;110.498;2022-10-31T04:59:47;22.50;89.10
25468;DHT22;13384;24.794;110.498;2022-10-31T05:02:18;22.50;89.30
25468;DHT22;13384;24.794;110.498;2022-10-31T05:04:55;22.50;89.80
25468;DHT22;13384;24.794;110.498;2022-10-31T05:07:27;22.50;89.70
25468;DHT22;13384;24.794;110.498;2022-10-31T05:09:57;22.50;89.80
25468;DHT22;13384;24.794;110.498;2022-10-31T05:12:30;22.50;89.70
25468;DHT22;13384;24.794;110.498;2022-10-31T05:15:07;22.50;89.70
25468;DHT22;13384;24.794;110.498;2022-10-31T05:18:30;22.50;89.70
25468;DHT22;13384;24.794;110.498;2022-10-31T05:21:20;22.50;89.30
25468;DHT22;13384;24.794;110.498;2022-10-31T05:23:54;22.50;88.90
25468;DHT22;13384;24.794;110.498;2022-10-31T05:26:25;22.50;87.80
25468;DHT22;13384;24.794;110.498;2022-10-31T05:28:56;22.60;90.00
25468;DHT22;13384;24.794;110.498;2022-10-31T05:31:29;22.60;89.50
25468;DHT22;13384;24.794;110.498;2022-10-31T05:34:33;22.60;89.30
25468;DHT22;13384;24.794;110.498;2022-10-31T05:37:38;22.60;89.50
25468;DHT22;13384;24.794;110.498;2022-10-31T05:40:12;22.60;89.40
25468;DHT22;13384;24.794;110.498;2022-10-31T05:42:44;22.60;89.40
25468;DHT22;13384;24.794;110.498;2022-10-31T05:45:17;22.60;89.60
25468;DHT22;13384;24.794;110.498;2022-10-31T05:47:58;22.60;89.60
25468;DHT22;13384;24.794;110.498;2022-10-31T05:50:50;22.60;89.20
25468;DHT22;13384;24.794;110.498;2022-10-31T05:53:23;22.60;89.60
25468;DHT22;13384;24.794;110.498;2022-10-31T05:55:54;22.60;89.60
25468;DHT22;13384;24.794;110.498;2022-10-31T05:58:26;22.60;89.50
25468;DHT22;13384;24.794;110.498;2022-10-31T06:01:06;22.60;89.50
25468;DHT22;13384;24.794;110.498;2022-10-31T06:03:38;22.60;89.50
25468;DHT22;13384;24.794;110.498;2022-10-31T06:06:10;22.60;89.50
25468;DHT22;13384;24.794;110.498;2022-10-31T06:08:42;22.60;89.60
25468;DHT22;13384;24.794;110.498;2022-10-31T06:11:20;22.60;89.50
25468;DHT22;13384;24.794;110.498;2022-10-31T06:14:27;22.60;89.50
25468;DHT22;13384;24.794;110.498;2022-10-31T06:16:58;22.60;89.60
25468;DHT22;13384;24.794;110.498;2022-10-31T06:19:52;22.60;89.60
25468;DHT22;13384;24.794;110.498;2022-10-31T06:22:27;22.60;89.60
25468;DHT22;13384;24.794;110.498;2022-10-31T06:25:00;22.60;89.60
25468;DHT22;13384;24.794;110.498;2022-10-31T06:27:35;22.60;89.60
25468;DHT22;13384;24.794;110.498;2022-10-31T06:30:12;22.60;89.40
25468;DHT22;13384;24.794;110.498;2022-10-31T06:32:45;22.70;89.20
25468;DHT22;13384;24.794;110.498;2022-10-31T06:35:16;22.70;89.50
25468;DHT22;13384;24.794;110.498;2022-10-31T06:37:52;22.60;89.50
25468;DHT22;13384;24.794;110.498;2022-10-31T06:40:37;22.60;89.40
25468;DHT22;13384;24.794;110.498;2022-10-31T06:43:21;22.60;89.40
25468;DHT22;13384;24.794;110.498;2022-10-31T06:46:05;22.60;89.40
25468;DHT22;13384;24.794;110.498;2022-10-31T06:48:46;22.60;89.30
25468;DHT22;13384;24.794;110.498;2022-10-31T06:51:20;22.70;89.40
25468;DHT22;13384;24.794;110.498;2022-10-31T06:53:52;22.60;89.30
25468;DHT22;13384;24.794;110.498;2022-10-31T06:56:26;22.60;89.30
25468;DHT22;13384;24.794;110.498;2022-10-31T06:58:59;22.60;89.20
25468;DHT22;13384;24.794;110.498;2022-10-31T07:02:17;22.60;89.20
25468;DHT22;13384;24.794;110.498;2022-10-31T07:04:49;22.70;89.30
25468;DHT22;13384;24.794;110.498;2022-10-31T07:07:20;22.60;89.20
25468;DHT22;13384;24.794;110.498;2022-10-31T07:09:52;22.60;89.20
25468;DHT22;13384;24.794;110.498;2022-10-31T07:12:41;22.60;89.10
25468;DHT22;13384;24.794;110.498;2022-10-31T07:15:12;22.60;88.80
25468;DHT22;13384;24.794;110.498;2022-10-31T07:17:44;22.70;89.20
25468;DHT22;13384;24.794;110.498;2022-10-31T07:20:15;22.70;89.90
25468;DHT22;13384;24.794;110.498;2022-10-31T07:22:46;22.70;89.10
25468;DHT22;13384;24.794;110.498;2022-10-31T07:25:19;22.70;89.10
25468;DHT22;13384;24.794;110.498;2022-10-31T07:28:00;22.70;88.90
25468;DHT22;13384;24.794;110.498;2022-10-31T07:30:55;22.70;88.90
25468;DHT22;13384;24.794;110.498;2022-10-31T07:33:26;22.70;88.90
25468;DHT22;13384;24.794;110.498;2022-10-31T07:36:20;22.70;88.90
25468;DHT22;13384;24.794;110.498;2022-10-31T07:38:53;22.70;88.80
25468;DHT22;13384;24.794;110.498;2022-10-31T07:41:24;22.70;88.60
25468;DHT22;13384;24.794;110.498;2022-10-31T07:43:55;22.70;88.70
25468;DHT22;13384;24.794;110.498;2022-10-31T07:46:44;22.70;88.60
25468;DHT22;13384;24.794;110.498;2022-10-31T07:49:33;22.70;88.50
25468;DHT22;13384;24.794;110.498;2022-10-31T07:52:39;22.70;88.40
25468;DHT22;13384;24.794;110.498;2022-10-31T07:55:55;22.70;88.50
25468;DHT22;13384;24.794;110.498;2022-10-31T07:58:47;22.70;88.10
25468;DHT22;13384;24.794;110.498;2022-10-31T08:01:19;22.70;88.20
25468;DHT22;13384;24.794;110.498;2022-10-31T08:04:48;22.80;88.10
25468;DHT22;13384;24.794;110.498;2022-10-31T08:07:42;22.70;88.00
25468;DHT22;13384;24.794;110.498;2022-10-31T08:10:19;22.70;88.00
25468;DHT22;13384;24.794;110.498;2022-10-31T08:12:57;22.70;88.00
25468;DHT22;13384;24.794;110.498;2022-10-31T08:15:29;22.80;87.90
25468;DHT22;13384;24.794;110.498;2022-10-31T08:18:01;22.80;88.00
25468;DHT22;13384;24.794;110.498;2022-10-31T08:20:33;22.80;87.80
25468;DHT22;13384;24.794;110.498;2022-10-31T08:23:05;22.80;87.50
25468;DHT22;13384;24.794;110.498;2022-10-31T08:25:37;22.80;87.70
25468;DHT22;13384;24.794;110.498;2022-10-31T08:28:10;22.80;87.80
25468;DHT22;13384;24.794;110.498;2022-10-31T08:30:44;22.70;87.90
25468;DHT22;13384;24.794;110.498;2022-10-31T08:33:34;22.70;87.60
25468;DHT22;13384;24.794;110.498;2022-10-31T08:36:21;22.80;87.80
25468;DHT22;13384;24.794;110.498;2022-10-31T08:39:18;22.80;87.80
25468;DHT22;13384;24.794;110.498;2022-10-31T08:41:51;22.70;87.80
25468;DHT22;13384;24.794;110.498;2022-10-31T08:44:23;22.80;87.90
25468;DHT22;13384;24.794;110.498;2022-10-31T08:46:54;22.80;87.90
25468;DHT22;13384;24.794;110.498;2022-10-31T08:49:25;22.80;87.90
25468;DHT22;13384;24.794;110.498;2022-10-31T08:51:57;22.80;87.90
25468;DHT22;13384;24.794;110.498;2022-10-31T08:54:32;22.80;87.90
25468;DHT22;13384;24.794;110.498;2022-10-31T08:57:21;22.80;87.70
25468;DHT22;13384;24.794;110.498;2022-10-31T09:00:13;22.80;87.80
25468;DHT22;13384;24.794;110.498;2022-10-31T09:03:01;22.80;87.70
25468;DHT22;13384;24.794;110.498;2022-10-31T09:05:33;22.90;87.70
25468;DHT22;13384;24.794;110.498;2022-10-31T09:08:06;22.90;87.60
25468;DHT22;13384;24.794;110.498;2022-10-31T09:10:46;22.90;87.60
25468;DHT22;13384;24.794;110.498;2022-10-31T09:13:24;22.90;87.60
25468;DHT22;13384;24.794;110.498;2022-10-31T09:16:19;22.90;87.50
25468;DHT22;13384;24.794;110.498;2022-10-31T09:18:50;22.90;87.60
25468;DHT22;13384;24.794;110.498;2022-10-31T09:21:45;22.90;87.50
25468;DHT22;13384;24.794;110.498;2022-10-31T09:24:16;23.00;87.50
25468;DHT22;13384;24.794;110.498;2022-10-31T09:26:49;22.90;87.50
25468;DHT22;13384;24.794;110.498;2022-10-31T09:29:28;22.90;87.60
25468;DHT22;13384;24.794;110.498;2022-10-31T09:32:01;22.90;87.70
25468;DHT22;13384;24.794;110.498;2022-10-31T09:34:38;22.90;87.80
25468;DHT22;13384;24.794;110.498;2022-10-31T09:37:15;22.80;87.90
25468;DHT22;13384;24.794;110.498;2022-10-31T09:39:46;22.80;88.00
25468;DHT22;13384;24.794;110.498;2022-10-31T09:42:55;22.80;88.10
25468;DHT22;13384;24.794;110.498;2022-10-31T09:45:35;22.80;88.20
25468;DHT22;13384;24.794;110.498;2022-10-31T09:51:37;22.80;88.40
25468;DHT22;13384;24.794;110.498;2022-10-31T09:54:45;22.70;88.40
25468;DHT22;13384;24.794;110.498;2022-10-31T09:57:28;22.70;88.60
25468;DHT22;13384;24.794;110.498;2022-10-31T10:00:03;22.70;88.50
25468;DHT22;13384;24.794;110.498;2022-10-31T10:02:52;22.70;88.60
25468;DHT22;13384;24.794;110.498;2022-10-31T10:05:39;22.70;88.60
25468;DHT22;13384;24.794;110.498;2022-10-31T10:08:21;22.70;88.70
25468;DHT22;13384;24.794;110.498;2022-10-31T10:11:39;22.70;88.70
25468;DHT22;13384;24.794;110.498;2022-10-31T10:22:56;22.70;89.10
25468;DHT22;13384;24.794;110.498;2022-10-31T10:25:38;22.70;89.10
25468;DHT22;13384;24.794;110.498;2022-10-31T10:28:29;22.70;89.20
25468;DHT22;13384;24.794;110.498;2022-10-31T10:31:17;22.70;89.30
25468;DHT22;13384;24.794;110.498;2022-10-31T10:36:54;22.60;89.30
25468;DHT22;13384;24.794;110.498;2022-10-31T10:39:48;22.70;89.60
25468;DHT22;13384;24.794;110.498;2022-10-31T10:42:21;22.60;89.20
25468;DHT22;13384;24.794;110.498;2022-10-31T10:45:16;22.60;88.40
25468;DHT22;13384;24.794;110.498;2022-10-31T10:48:19;22.60;89.40
25468;DHT22;13384;24.794;110.498;2022-10-31T10:50:54;22.60;86.80
25468;DHT22;13384;24.794;110.498;2022-10-31T10:54:03;22.60;89.20
25468;DHT22;13384;24.794;110.498;2022-10-31T10:59:34;22.60;88.60
25468;DHT22;13384;24.794;110.498;2022-10-31T11:02:30;22.70;89.40
25468;DHT22;13384;24.794;110.498;2022-10-31T11:07:52;22.60;88.50
25468;DHT22;13384;24.794;110.498;2022-10-31T11:10:23;22.60;89.20
25468;DHT22;13384;24.794;110.498;2022-10-31T11:13:21;22.60;88.90
25468;DHT22;13384;24.794;110.498;2022-10-31T11:15:59;22.60;88.10
25468;DHT22;13384;24.794;110.498;2022-10-31T11:18:32;22.60;87.90
25468;DHT22;13384;24.794;110.498;2022-10-31T11:21:05;22.60;88.50
25468;DHT22;13384;24.794;110.498;2022-10-31T11:23:37;22.60;88.30
25468;DHT22;13384;24.794;110.498;2022-10-31T11:26:20;22.60;87.60
25468;DHT22;13384;24.794;110.498;2022-10-31T11:28:58;22.60;88.20
25468;DHT22;13384;24.794;110.498;2022-10-31T11:31:30;22.60;89.10
25468;DHT22;13384;24.794;110.498;2022-10-31T11:34:13;22.60;89.30
25468;DHT22;13384;24.794;110.498;2022-10-31T11:36:45;22.60;88.80
25468;DHT22;13384;24.794;110.498;2022-10-31T11:39:25;22.60;88.80
25468;DHT22;13384;24.794;110.498;2022-10-31T11:42:01;22.60;89.00
25468;DHT22;13384;24.794;110.498;2022-10-31T11:44:42;22.60;89.30
25468;DHT22;13384;24.794;110.498;2022-10-31T11:47:20;22.50;89.00
25468;DHT22;13384;24.794;110.498;2022-10-31T11:49:51;22.50;89.30
25468;DHT22;13384;24.794;110.498;2022-10-31T11:52:32;22.50;89.10
25468;DHT22;13384;24.794;110.498;2022-10-31T11:55:17;22.50;89.50
25468;DHT22;13384;24.794;110.498;2022-10-31T11:57:50;22.50;88.90
25468;DHT22;13384;24.794;110.498;2022-10-31T12:00:37;22.50;89.40
25468;DHT22;13384;24.794;110.498;2022-10-31T12:08:34;22.50;89.60
25468;DHT22;13384;24.794;110.498;2022-10-31T12:11:23;22.40;89.60
25468;DHT22;13384;24.794;110.498;2022-10-31T12:17:02;22.40;89.80
25468;DHT22;13384;24.794;110.498;2022-10-31T12:20:17;22.40;89.70
25468;DHT22;13384;24.794;110.498;2022-10-31T12:25:29;22.40;88.00
25468;DHT22;13384;24.794;110.498;2022-10-31T12:28:43;22.40;90.00
25468;DHT22;13384;24.794;110.498;2022-10-31T12:37:36;22.40;90.00
25468;DHT22;13384;24.794;110.498;2022-10-31T12:43:41;22.30;89.60
25468;DHT22;13384;24.794;110.498;2022-10-31T12:47:08;22.40;90.10
25468;DHT22;13384;24.794;110.498;2022-10-31T12:54:58;22.30;90.20
25468;DHT22;13384;24.794;110.498;2022-10-31T12:57:38;22.30;90.20
25468;DHT22;13384;24.794;110.498;2022-10-31T13:00:19;22.30;90.30
25468;DHT22;13384;24.794;110.498;2022-10-31T13:05:54;22.30;90.30
25468;DHT22;13384;24.794;110.498;2022-10-31T13:08:40;22.30;90.00
25468;DHT22;13384;24.794;110.498;2022-10-31T13:11:38;22.30;90.30
25468;DHT22;13384;24.794;110.498;2022-10-31T13:16:57;22.20;90.20
25468;DHT22;13384;24.794;110.498;2022-10-31T13:19:40;22.20;90.40
25468;DHT22;13384;24.794;110.498;2022-10-31T13:22:23;22.20;90.40
25468;DHT22;13384;24.794;110.498;2022-10-31T13:24:59;22.20;90.40
25468;DHT22;13384;24.794;110.498;2022-10-31T13:27:44;22.20;90.40
25468;DHT22;13384;24.794;110.498;2022-10-31T13:30:40;22.20;90.40
25468;DHT22;13384;24.794;110.498;2022-10-31T13:44:23;22.20;90.40
25468;DHT22;13384;24.794;110.498;2022-10-31T13:46:56;22.20;90.50
25468;DHT22;13384;24.794;110.498;2022-10-31T13:54:49;22.20;90.60
25468;DHT22;13384;24.794;110.498;2022-10-31T13:57:38;22.20;90.60
25468;DHT22;13384;24.794;110.498;2022-10-31T14:00:27;22.20;90.60
25468;DHT22;13384;24.794;110.498;2022-10-31T14:03:20;22.10;90.60
25468;DHT22;13384;24.794;110.498;2022-10-31T14:06:11;22.10;91.00
25468;DHT22;13384;24.794;110.498;2022-10-31T14:08:49;22.10;90.50
25468;DHT22;13384;24.794;110.498;2022-10-31T14:11:26;22.10;90.70
25468;DHT22;13384;24.794;110.498;2022-10-31T14:14:11;22.10;90.70
25468;DHT22;13384;24.794;110.498;2022-10-31T14:16:45;22.10;90.70
25468;DHT22;13384;24.794;110.498;2022-10-31T14:19:23;22.10;90.60
25468;DHT22;13384;24.794;110.498;2022-10-31T14:21:54;22.10;90.70
25468;DHT22;13384;24.794;110.498;2022-10-31T14:27:29;22.10;90.70
25468;DHT22;13384;24.794;110.498;2022-10-31T14:29:55;22.10;90.70
25468;DHT22;13384;24.794;110.498;2022-10-31T14:32:39;22.10;90.70
25468;DHT22;13384;24.794;110.498;2022-10-31T14:35:14;22.10;90.70
25468;DHT22;13384;24.794;110.498;2022-10-31T14:41:08;22.10;90.70
25468;DHT22;13384;24.794;110.498;2022-10-31T14:52:02;22.10;90.80
25468;DHT22;13384;24.794;110.498;2022-10-31T14:54:43;22.10;90.00
25468;DHT22;13384;24.794;110.498;2022-10-31T14:57:31;22.10;90.80
25468;DHT22;13384;24.794;110.498;2022-10-31T15:00:07;22.10;90.80
25468;DHT22;13384;24.794;110.498;2022-10-31T15:02:55;22.10;91.00
25468;DHT22;13384;24.794;110.498;2022-10-31T15:05:29;22.00;90.80
25468;DHT22;13384;24.794;110.498;2022-10-31T15:08:02;22.00;90.80
25468;DHT22;13384;24.794;110.498;2022-10-31T15:10:37;22.00;90.80
25468;DHT22;13384;24.794;110.498;2022-10-31T15:13:26;22.00;90.80
25468;DHT22;13384;24.794;110.498;2022-10-31T15:15:58;22.00;90.90
25468;DHT22;13384;24.794;110.498;2022-10-31T15:19:03;22.00;90.80
25468;DHT22;13384;24.794;110.498;2022-10-31T15:21:36;22.00;90.80
25468;DHT22;13384;24.794;110.498;2022-10-31T15:24:16;22.00;90.80
25468;DHT22;13384;24.794;110.498;2022-10-31T15:26:53;22.00;90.80
25468;DHT22;13384;24.794;110.498;2022-10-31T15:29:32;22.00;90.80
25468;DHT22;13384;24.794;110.498;2022-10-31T15:32:26;22.00;90.80
25468;DHT22;13384;24.794;110.498;2022-10-31T15:34:57;22.00;90.90
25468;DHT22;13384;24.794;110.498;2022-10-31T15:37:28;22.00;90.90
25468;DHT22;13384;24.794;110.498;2022-10-31T15:40:11;22.00;90.80
25468;DHT22;13384;24.794;110.498;2022-10-31T15:42:43;22.00;90.80
25468;DHT22;13384;24.794;110.498;2022-10-31T15:45:23;22.00;91.20
25468;DHT22;13384;24.794;110.498;2022-10-31T15:48:12;21.90;90.90
25468;DHT22;13384;24.794;110.498;2022-10-31T15:50:54;21.90;90.90
25468;DHT22;13384;24.794;110.498;2022-10-31T15:53:48;21.90;90.90
25468;DHT22;13384;24.794;110.498;2022-10-31T15:56:30;21.90;90.90
25468;DHT22;13384;24.794;110.498;2022-10-31T15:59:16;21.90;90.80
25468;DHT22;13384;24.794;110.498;2022-10-31T16:02:10;21.90;90.90
25468;DHT22;13384;24.794;110.498;2022-10-31T16:04:57;21.90;90.90
25468;DHT22;13384;24.794;110.498;2022-10-31T16:07:29;21.90;90.90
25468;DHT22;13384;24.794;110.498;2022-10-31T16:10:03;21.90;91.00
25468;DHT22;13384;24.794;110.498;2022-10-31T16:12:47;21.80;91.00
25468;DHT22;13384;24.794;110.498;2022-10-31T16:15:20;21.90;91.00
25468;DHT22;13384;24.794;110.498;2022-10-31T16:17:52;21.90;91.00
25468;DHT22;13384;24.794;110.498;2022-10-31T16:20:49;21.90;91.00
25468;DHT22;13384;24.794;110.498;2022-10-31T16:23:25;21.90;90.90
25468;DHT22;13384;24.794;110.498;2022-10-31T16:25:55;21.90;90.90
25468;DHT22;13384;24.794;110.498;2022-10-31T16:28:27;21.80;90.90
25468;DHT22;13384;24.794;110.498;2022-10-31T16:31:13;21.80;90.90
25468;DHT22;13384;24.794;110.498;2022-10-31T16:33:44;21.90;91.00
25468;DHT22;13384;24.794;110.498;2022-10-31T16:36:51;21.80;91.00
25468;DHT22;13384;24.794;110.498;2022-10-31T16:39:16;21.80;91.00
25468;DHT22;13384;24.794;110.498;2022-10-31T16:41:54;21.80;90.90
25468;DHT22;13384;24.794;110.498;2022-10-31T16:44:27;21.80;91.00
25468;DHT22;13384;24.794;110.498;2022-10-31T16:47:08;21.80;91.00
25468;DHT22;13384;24.794;110.498;2022-10-31T16:49:46;21.80;90.90
25468;DHT22;13384;24.794;110.498;2022-10-31T16:52:18;21.80;91.00
25468;DHT22;13384;24.794;110.498;2022-10-31T16:54:49;21.80;91.00
25468;DHT22;13384;24.794;110.498;2022-10-31T16:57:46;21.80;91.00
25468;DHT22;13384;24.794;110.498;2022-10-31T17:00:20;21.80;91.00
25468;DHT22;13384;24.794;110.498;2022-10-31T17:02:57;21.80;90.80
25468;DHT22;13384;24.794;110.498;2022-10-31T17:05:28;21.80;91.00
25468;DHT22;13384;24.794;110.498;2022-10-31T17:08:00;21.80;90.30
25468;DHT22;13384;24.794;110.498;2022-10-31T17:10:56;21.70;90.90
25468;DHT22;13384;24.794;110.498;2022-10-31T17:13:30;21.70;91.00
25468;DHT22;13384;24.794;110.498;2022-10-31T17:16:03;21.70;91.00
25468;DHT22;13384;24.794;110.498;2022-10-31T17:18:35;21.70;91.00
25468;DHT22;13384;24.794;110.498;2022-10-31T17:21:09;21.70;91.00
25468;DHT22;13384;24.794;110.498;2022-10-31T17:23:45;21.70;91.00
25468;DHT22;13384;24.794;110.498;2022-10-31T17:26:17;21.80;91.10
25468;DHT22;13384;24.794;110.498;2022-10-31T17:28:49;21.80;91.10
25468;DHT22;13384;24.794;110.498;2022-10-31T17:31:27;21.70;91.00
25468;DHT22;13384;24.794;110.498;2022-10-31T17:33:59;21.70;91.00
25468;DHT22;13384;24.794;110.498;2022-10-31T17:36:32;21.70;91.00
25468;DHT22;13384;24.794;110.498;2022-10-31T17:39:23;21.70;91.00
25468;DHT22;13384;24.794;110.498;2022-10-31T17:41:55;21.70;91.00
25468;DHT22;13384;24.794;110.498;2022-10-31T17:44:46;21.70;91.00
25468;DHT22;13384;24.794;110.498;2022-10-31T17:47:17;21.70;91.00
25468;DHT22;13384;24.794;110.498;2022-10-31T17:49:49;21.70;91.00
25468;DHT22;13384;24.794;110.498;2022-10-31T17:52:23;21.70;91.00
25468;DHT22;13384;24.794;110.498;2022-10-31T17:54:54;21.60;91.00
25468;DHT22;13384;24.794;110.498;2022-10-31T17:58:01;21.70;91.00
25468;DHT22;13384;24.794;110.498;2022-10-31T18:00:46;21.70;91.40
25468;DHT22;13384;24.794;110.498;2022-10-31T18:03:19;21.60;91.00
25468;DHT22;13384;24.794;110.498;2022-10-31T18:05:55;21.70;91.00
25468;DHT22;13384;24.794;110.498;2022-10-31T18:08:29;21.70;90.60